Big Sur, California
Current Conditions -  °F | °C
As of 5:54 AM on Wednesday 22 Oct 2014 (Local Time) from KMRY Reporting Station
Clear Clear  
Wind Chill: 51°   Ceiling: Unl
Heat Index: 51°   Visibility: 10mi
Dew Point: 45°   Wind: 5mph
Humidity: 80%   Direction: 80°E
Pressure: 30.03"   Gusts: NA
Location:  36.27°N, 121.81°W
Report Text: KMRY 221254Z 08004KT 10SM CLR 11/07 A3003 RMK AO2 SLP181 T01060072
Loading
Personal Weather Stations






























Interactive Weather Map
Tropical Storm Tracking
New forecast layout! Learn more

10-Day Weather Forecast

Advertisements
Track Severe Weather on mobile